sensor_id;sensor_type;location;lat;lon;timestamp;P1;durP1;ratioP1;P2;durP2;ratioP2
28625;SDS011;18905;42.668;23.364;2023-06-22T00:01:18;24.13;;;15.00;;
28625;SDS011;18905;42.668;23.364;2023-06-22T00:03:44;34.97;;;20.70;;
28625;SDS011;18905;42.668;23.364;2023-06-22T00:06:10;28.65;;;18.42;;
28625;SDS011;18905;42.668;23.364;2023-06-22T00:08:35;25.70;;;17.58;;
28625;SDS011;18905;42.668;23.364;2023-06-22T00:11:00;22.27;;;17.48;;
28625;SDS011;18905;42.668;23.364;2023-06-22T00:13:26;27.63;;;19.50;;
28625;SDS011;18905;42.668;23.364;2023-06-22T00:15:51;25.05;;;18.77;;
28625;SDS011;18905;42.668;23.364;2023-06-22T00:18:17;22.42;;;14.45;;
28625;SDS011;18905;42.668;23.364;2023-06-22T00:20:42;21.20;;;15.80;;
28625;SDS011;18905;42.668;23.364;2023-06-22T00:23:08;22.23;;;16.15;;
28625;SDS011;18905;42.668;23.364;2023-06-22T00:25:39;18.98;;;15.10;;
28625;SDS011;18905;42.668;23.364;2023-06-22T00:28:05;19.52;;;14.88;;
28625;SDS011;18905;42.668;23.364;2023-06-22T00:30:32;20.42;;;12.88;;
28625;SDS011;18905;42.668;23.364;2023-06-22T00:32:58;20.95;;;13.93;;
28625;SDS011;18905;42.668;23.364;2023-06-22T00:35:24;20.77;;;13.68;;
28625;SDS011;18905;42.668;23.364;2023-06-22T00:37:57;20.92;;;12.48;;
28625;SDS011;18905;42.668;23.364;2023-06-22T00:40:28;18.27;;;12.50;;
28625;SDS011;18905;42.668;23.364;2023-06-22T00:42:55;18.60;;;11.48;;
28625;SDS011;18905;42.668;23.364;2023-06-22T00:45:24;16.08;;;12.30;;
28625;SDS011;18905;42.668;23.364;2023-06-22T00:47:53;16.20;;;11.30;;
28625;SDS011;18905;42.668;23.364;2023-06-22T00:50:23;16.08;;;12.18;;
28625;SDS011;18905;42.668;23.364;2023-06-22T00:52:51;16.58;;;11.73;;
28625;SDS011;18905;42.668;23.364;2023-06-22T00:55:18;18.00;;;11.80;;
28625;SDS011;18905;42.668;23.364;2023-06-22T00:57:46;15.32;;;10.40;;
28625;SDS011;18905;42.668;23.364;2023-06-22T01:00:12;16.52;;;10.77;;
28625;SDS011;18905;42.668;23.364;2023-06-22T01:02:44;16.50;;;10.50;;
28625;SDS011;18905;42.668;23.364;2023-06-22T01:05:17;15.20;;;10.68;;
28625;SDS011;18905;42.668;23.364;2023-06-22T01:10:44;15.50;;;9.75;;
28625;SDS011;18905;42.668;23.364;2023-06-22T01:16:02;16.90;;;10.50;;
28625;SDS011;18905;42.668;23.364;2023-06-22T01:18:31;18.70;;;11.23;;
28625;SDS011;18905;42.668;23.364;2023-06-22T01:21:01;20.23;;;11.13;;
28625;SDS011;18905;42.668;23.364;2023-06-22T01:23:36;15.65;;;11.38;;
28625;SDS011;18905;42.668;23.364;2023-06-22T01:28:59;17.60;;;10.55;;
28625;SDS011;18905;42.668;23.364;2023-06-22T01:31:28;15.05;;;10.68;;
28625;SDS011;18905;42.668;23.364;2023-06-22T01:34:00;15.95;;;10.55;;
28625;SDS011;18905;42.668;23.364;2023-06-22T01:36:28;14.05;;;9.85;;
28625;SDS011;18905;42.668;23.364;2023-06-22T01:38:55;14.60;;;10.57;;
28625;SDS011;18905;42.668;23.364;2023-06-22T01:41:24;18.02;;;9.77;;
28625;SDS011;18905;42.668;23.364;2023-06-22T01:43:51;12.48;;;10.30;;
28625;SDS011;18905;42.668;23.364;2023-06-22T01:46:17;13.57;;;10.77;;
28625;SDS011;18905;42.668;23.364;2023-06-22T01:48:44;13.63;;;9.85;;
28625;SDS011;18905;42.668;23.364;2023-06-22T01:51:11;14.80;;;10.60;;
28625;SDS011;18905;42.668;23.364;2023-06-22T01:53:36;16.30;;;9.73;;
28625;SDS011;18905;42.668;23.364;2023-06-22T01:56:02;14.88;;;10.15;;
28625;SDS011;18905;42.668;23.364;2023-06-22T01:58:28;14.05;;;10.40;;
28625;SDS011;18905;42.668;23.364;2023-06-22T02:01:17;12.35;;;10.10;;
28625;SDS011;18905;42.668;23.364;2023-06-22T02:03:44;18.52;;;10.85;;
28625;SDS011;18905;42.668;23.364;2023-06-22T02:06:21;15.40;;;10.43;;
28625;SDS011;18905;42.668;23.364;2023-06-22T02:08:57;16.00;;;11.13;;
28625;SDS011;18905;42.668;23.364;2023-06-22T02:11:26;17.05;;;11.50;;
28625;SDS011;18905;42.668;23.364;2023-06-22T02:13:53;14.85;;;10.60;;
28625;SDS011;18905;42.668;23.364;2023-06-22T02:16:19;17.50;;;10.93;;
28625;SDS011;18905;42.668;23.364;2023-06-22T02:18:45;18.92;;;11.18;;
28625;SDS011;18905;42.668;23.364;2023-06-22T02:21:20;16.48;;;11.88;;
28625;SDS011;18905;42.668;23.364;2023-06-22T02:23:46;17.85;;;11.25;;
28625;SDS011;18905;42.668;23.364;2023-06-22T02:26:12;19.05;;;12.27;;
28625;SDS011;18905;42.668;23.364;2023-06-22T02:28:38;21.70;;;15.98;;
28625;SDS011;18905;42.668;23.364;2023-06-22T02:31:04;26.17;;;17.40;;
28625;SDS011;18905;42.668;23.364;2023-06-22T02:33:29;24.05;;;14.23;;
28625;SDS011;18905;42.668;23.364;2023-06-22T02:35:55;23.58;;;14.18;;
28625;SDS011;18905;42.668;23.364;2023-06-22T02:38:20;23.95;;;14.90;;
28625;SDS011;18905;42.668;23.364;2023-06-22T02:40:46;20.35;;;14.82;;
28625;SDS011;18905;42.668;23.364;2023-06-22T02:43:12;20.23;;;13.55;;
28625;SDS011;18905;42.668;23.364;2023-06-22T02:45:38;16.65;;;12.95;;
28625;SDS011;18905;42.668;23.364;2023-06-22T02:48:03;16.48;;;13.27;;
28625;SDS011;18905;42.668;23.364;2023-06-22T02:50:29;18.63;;;12.80;;
28625;SDS011;18905;42.668;23.364;2023-06-22T02:52:55;18.38;;;12.00;;
28625;SDS011;18905;42.668;23.364;2023-06-22T02:55:20;16.52;;;12.45;;
28625;SDS011;18905;42.668;23.364;2023-06-22T02:57:46;24.25;;;13.15;;
28625;SDS011;18905;42.668;23.364;2023-06-22T03:00:13;17.58;;;12.48;;
28625;SDS011;18905;42.668;23.364;2023-06-22T03:02:46;17.88;;;12.73;;
28625;SDS011;18905;42.668;23.364;2023-06-22T03:05:12;16.77;;;12.13;;
28625;SDS011;18905;42.668;23.364;2023-06-22T03:07:42;18.60;;;13.02;;
28625;SDS011;18905;42.668;23.364;2023-06-22T03:10:08;18.05;;;12.90;;
28625;SDS011;18905;42.668;23.364;2023-06-22T03:12:35;14.73;;;12.50;;
28625;SDS011;18905;42.668;23.364;2023-06-22T03:15:00;21.52;;;13.30;;
28625;SDS011;18905;42.668;23.364;2023-06-22T03:17:26;16.60;;;12.35;;
28625;SDS011;18905;42.668;23.364;2023-06-22T03:19:51;21.30;;;12.43;;
28625;SDS011;18905;42.668;23.364;2023-06-22T03:22:17;21.27;;;12.32;;
28625;SDS011;18905;42.668;23.364;2023-06-22T03:24:42;20.05;;;12.63;;
28625;SDS011;18905;42.668;23.364;2023-06-22T03:27:07;29.85;;;14.55;;
28625;SDS011;18905;42.668;23.364;2023-06-22T03:29:33;15.00;;;11.38;;
28625;SDS011;18905;42.668;23.364;2023-06-22T03:31:59;16.50;;;12.27;;
28625;SDS011;18905;42.668;23.364;2023-06-22T03:34:24;20.08;;;12.38;;
28625;SDS011;18905;42.668;23.364;2023-06-22T03:36:50;16.45;;;12.57;;
28625;SDS011;18905;42.668;23.364;2023-06-22T03:39:15;27.15;;;12.95;;
28625;SDS011;18905;42.668;23.364;2023-06-22T03:41:41;21.13;;;13.25;;
28625;SDS011;18905;42.668;23.364;2023-06-22T03:44:06;33.17;;;14.88;;
28625;SDS011;18905;42.668;23.364;2023-06-22T03:46:32;19.33;;;13.38;;
28625;SDS011;18905;42.668;23.364;2023-06-22T03:48:57;21.98;;;16.00;;
28625;SDS011;18905;42.668;23.364;2023-06-22T03:51:22;27.00;;;12.93;;
28625;SDS011;18905;42.668;23.364;2023-06-22T03:53:48;21.02;;;12.43;;
28625;SDS011;18905;42.668;23.364;2023-06-22T03:56:13;15.90;;;12.05;;
28625;SDS011;18905;42.668;23.364;2023-06-22T03:58:45;21.58;;;13.25;;
28625;SDS011;18905;42.668;23.364;2023-06-22T04:01:10;22.08;;;12.93;;
28625;SDS011;18905;42.668;23.364;2023-06-22T04:03:37;22.67;;;13.55;;
28625;SDS011;18905;42.668;23.364;2023-06-22T04:06:02;22.13;;;13.48;;
28625;SDS011;18905;42.668;23.364;2023-06-22T04:08:28;22.77;;;12.90;;
28625;SDS011;18905;42.668;23.364;2023-06-22T04:10:53;20.95;;;12.55;;
28625;SDS011;18905;42.668;23.364;2023-06-22T04:13:19;18.95;;;13.07;;
28625;SDS011;18905;42.668;23.364;2023-06-22T04:15:44;24.05;;;13.02;;
28625;SDS011;18905;42.668;23.364;2023-06-22T04:18:10;21.95;;;12.43;;
28625;SDS011;18905;42.668;23.364;2023-06-22T04:20:35;14.90;;;11.95;;
28625;SDS011;18905;42.668;23.364;2023-06-22T04:23:01;14.38;;;12.25;;
28625;SDS011;18905;42.668;23.364;2023-06-22T04:25:26;20.38;;;13.27;;
28625;SDS011;18905;42.668;23.364;2023-06-22T04:27:52;17.90;;;12.45;;
28625;SDS011;18905;42.668;23.364;2023-06-22T04:30:17;22.48;;;13.25;;
28625;SDS011;18905;42.668;23.364;2023-06-22T04:32:43;18.73;;;13.85;;
28625;SDS011;18905;42.668;23.364;2023-06-22T04:35:09;17.38;;;13.35;;
28625;SDS011;18905;42.668;23.364;2023-06-22T04:37:35;18.80;;;14.07;;
28625;SDS011;18905;42.668;23.364;2023-06-22T04:40:01;19.15;;;12.93;;
28625;SDS011;18905;42.668;23.364;2023-06-22T04:42:26;17.45;;;14.05;;
28625;SDS011;18905;42.668;23.364;2023-06-22T04:44:52;17.92;;;13.00;;
28625;SDS011;18905;42.668;23.364;2023-06-22T04:47:17;19.75;;;14.25;;
28625;SDS011;18905;42.668;23.364;2023-06-22T04:49:43;20.15;;;13.63;;
28625;SDS011;18905;42.668;23.364;2023-06-22T04:52:10;17.98;;;13.10;;
28625;SDS011;18905;42.668;23.364;2023-06-22T04:54:37;28.00;;;14.00;;
28625;SDS011;18905;42.668;23.364;2023-06-22T04:57:04;18.30;;;13.40;;
28625;SDS011;18905;42.668;23.364;2023-06-22T04:59:35;18.73;;;13.88;;
28625;SDS011;18905;42.668;23.364;2023-06-22T05:02:01;21.23;;;13.35;;
28625;SDS011;18905;42.668;23.364;2023-06-22T05:04:28;27.95;;;13.60;;
28625;SDS011;18905;42.668;23.364;2023-06-22T05:06:58;18.23;;;13.25;;
28625;SDS011;18905;42.668;23.364;2023-06-22T05:09:24;23.45;;;13.65;;
28625;SDS011;18905;42.668;23.364;2023-06-22T05:11:52;20.58;;;14.07;;
28625;SDS011;18905;42.668;23.364;2023-06-22T05:14:17;18.08;;;12.60;;
28625;SDS011;18905;42.668;23.364;2023-06-22T05:16:43;18.80;;;13.27;;
28625;SDS011;18905;42.668;23.364;2023-06-22T05:19:10;16.75;;;13.35;;
28625;SDS011;18905;42.668;23.364;2023-06-22T05:21:36;18.88;;;13.10;;
28625;SDS011;18905;42.668;23.364;2023-06-22T05:24:01;18.13;;;12.43;;
28625;SDS011;18905;42.668;23.364;2023-06-22T05:26:28;13.95;;;11.13;;
28625;SDS011;18905;42.668;23.364;2023-06-22T05:28:54;18.88;;;12.18;;
28625;SDS011;18905;42.668;23.364;2023-06-22T05:31:20;18.85;;;11.38;;
28625;SDS011;18905;42.668;23.364;2023-06-22T05:33:46;21.02;;;11.40;;
28625;SDS011;18905;42.668;23.364;2023-06-22T05:36:13;17.83;;;11.63;;
28625;SDS011;18905;42.668;23.364;2023-06-22T05:38:39;16.58;;;11.88;;
28625;SDS011;18905;42.668;23.364;2023-06-22T05:41:05;18.42;;;11.07;;
28625;SDS011;18905;42.668;23.364;2023-06-22T05:43:31;18.35;;;12.50;;
28625;SDS011;18905;42.668;23.364;2023-06-22T05:45:56;19.73;;;12.88;;
28625;SDS011;18905;42.668;23.364;2023-06-22T05:48:22;24.88;;;12.27;;
28625;SDS011;18905;42.668;23.364;2023-06-22T05:50:48;16.23;;;12.05;;
28625;SDS011;18905;42.668;23.364;2023-06-22T05:53:13;20.20;;;13.35;;
28625;SDS011;18905;42.668;23.364;2023-06-22T05:55:39;26.92;;;13.88;;
28625;SDS011;18905;42.668;23.364;2023-06-22T05:58:04;22.63;;;11.43;;
28625;SDS011;18905;42.668;23.364;2023-06-22T06:00:30;18.08;;;10.32;;
28625;SDS011;18905;42.668;23.364;2023-06-22T06:02:56;17.58;;;12.90;;
28625;SDS011;18905;42.668;23.364;2023-06-22T06:05:21;19.23;;;11.93;;
28625;SDS011;18905;42.668;23.364;2023-06-22T06:07:48;22.55;;;12.85;;
28625;SDS011;18905;42.668;23.364;2023-06-22T06:10:14;17.45;;;12.27;;
28625;SDS011;18905;42.668;23.364;2023-06-22T06:12:39;19.73;;;11.95;;
28625;SDS011;18905;42.668;23.364;2023-06-22T06:15:05;24.60;;;13.77;;
28625;SDS011;18905;42.668;23.364;2023-06-22T06:17:31;19.60;;;11.95;;
28625;SDS011;18905;42.668;23.364;2023-06-22T06:19:56;17.48;;;12.98;;
28625;SDS011;18905;42.668;23.364;2023-06-22T06:22:21;21.90;;;14.40;;
28625;SDS011;18905;42.668;23.364;2023-06-22T06:24:48;26.88;;;14.63;;
28625;SDS011;18905;42.668;23.364;2023-06-22T06:27:14;21.58;;;12.35;;
28625;SDS011;18905;42.668;23.364;2023-06-22T06:29:39;18.95;;;13.10;;
28625;SDS011;18905;42.668;23.364;2023-06-22T06:32:05;21.17;;;12.57;;
28625;SDS011;18905;42.668;23.364;2023-06-22T06:34:31;20.55;;;13.90;;
28625;SDS011;18905;42.668;23.364;2023-06-22T06:36:56;16.20;;;12.27;;
28625;SDS011;18905;42.668;23.364;2023-06-22T06:39:22;16.77;;;13.25;;
28625;SDS011;18905;42.668;23.364;2023-06-22T06:41:47;19.95;;;12.82;;
28625;SDS011;18905;42.668;23.364;2023-06-22T06:44:12;16.98;;;12.93;;
28625;SDS011;18905;42.668;23.364;2023-06-22T06:46:38;18.70;;;12.60;;
28625;SDS011;18905;42.668;23.364;2023-06-22T06:49:03;13.45;;;10.13;;
28625;SDS011;18905;42.668;23.364;2023-06-22T06:51:29;16.15;;;10.57;;
28625;SDS011;18905;42.668;23.364;2023-06-22T06:53:54;17.85;;;10.55;;
28625;SDS011;18905;42.668;23.364;2023-06-22T06:56:20;11.98;;;10.48;;
28625;SDS011;18905;42.668;23.364;2023-06-22T06:58:45;19.65;;;12.63;;
28625;SDS011;18905;42.668;23.364;2023-06-22T07:01:11;22.48;;;11.63;;
28625;SDS011;18905;42.668;23.364;2023-06-22T07:03:39;17.65;;;12.93;;
28625;SDS011;18905;42.668;23.364;2023-06-22T07:06:05;23.73;;;13.05;;
28625;SDS011;18905;42.668;23.364;2023-06-22T07:08:30;23.38;;;12.35;;
28625;SDS011;18905;42.668;23.364;2023-06-22T07:10:56;20.70;;;11.65;;
28625;SDS011;18905;42.668;23.364;2023-06-22T07:13:22;18.08;;;12.07;;
28625;SDS011;18905;42.668;23.364;2023-06-22T07:15:47;21.95;;;11.82;;
28625;SDS011;18905;42.668;23.364;2023-06-22T07:18:12;15.45;;;11.93;;
28625;SDS011;18905;42.668;23.364;2023-06-22T07:20:38;16.35;;;11.32;;
28625;SDS011;18905;42.668;23.364;2023-06-22T07:23:04;15.63;;;11.75;;
28625;SDS011;18905;42.668;23.364;2023-06-22T07:25:30;18.80;;;12.35;;
28625;SDS011;18905;42.668;23.364;2023-06-22T07:28:00;17.50;;;11.65;;
28625;SDS011;18905;42.668;23.364;2023-06-22T07:30:28;18.27;;;12.77;;
28625;SDS011;18905;42.668;23.364;2023-06-22T07:32:54;17.48;;;11.63;;
28625;SDS011;18905;42.668;23.364;2023-06-22T07:35:20;22.80;;;12.27;;
28625;SDS011;18905;42.668;23.364;2023-06-22T07:37:45;15.15;;;9.90;;
28625;SDS011;18905;42.668;23.364;2023-06-22T07:40:11;16.20;;;11.98;;
28625;SDS011;18905;42.668;23.364;2023-06-22T07:42:37;16.15;;;11.50;;
28625;SDS011;18905;42.668;23.364;2023-06-22T07:45:03;17.20;;;10.85;;
28625;SDS011;18905;42.668;23.364;2023-06-22T07:47:29;20.75;;;11.77;;
28625;SDS011;18905;42.668;23.364;2023-06-22T07:49:55;19.35;;;12.13;;
28625;SDS011;18905;42.668;23.364;2023-06-22T07:52:26;17.13;;;10.75;;
28625;SDS011;18905;42.668;23.364;2023-06-22T07:54:51;19.60;;;11.80;;
28625;SDS011;18905;42.668;23.364;2023-06-22T07:57:17;16.42;;;11.88;;
28625;SDS011;18905;42.668;23.364;2023-06-22T07:59:42;20.63;;;12.38;;
28625;SDS011;18905;42.668;23.364;2023-06-22T08:02:08;15.55;;;11.48;;
28625;SDS011;18905;42.668;23.364;2023-06-22T08:04:34;19.77;;;11.30;;
28625;SDS011;18905;42.668;23.364;2023-06-22T08:07:00;14.43;;;11.20;;
28625;SDS011;18905;42.668;23.364;2023-06-22T08:09:27;13.52;;;11.95;;
28625;SDS011;18905;42.668;23.364;2023-06-22T08:11:53;20.25;;;11.45;;
28625;SDS011;18905;42.668;23.364;2023-06-22T08:14:20;17.05;;;11.02;;
28625;SDS011;18905;42.668;23.364;2023-06-22T08:16:46;15.15;;;10.05;;
28625;SDS011;18905;42.668;23.364;2023-06-22T08:19:11;17.25;;;10.30;;
28625;SDS011;18905;42.668;23.364;2023-06-22T08:21:36;15.88;;;10.45;;
28625;SDS011;18905;42.668;23.364;2023-06-22T08:24:02;31.50;;;11.20;;
28625;SDS011;18905;42.668;23.364;2023-06-22T08:26:28;15.90;;;11.18;;
28625;SDS011;18905;42.668;23.364;2023-06-22T08:28:53;15.40;;;11.30;;
28625;SDS011;18905;42.668;23.364;2023-06-22T08:31:19;19.25;;;10.60;;
28625;SDS011;18905;42.668;23.364;2023-06-22T08:33:45;20.67;;;10.85;;
28625;SDS011;18905;42.668;23.364;2023-06-22T08:36:11;14.32;;;10.93;;
28625;SDS011;18905;42.668;23.364;2023-06-22T08:38:38;19.83;;;11.15;;
28625;SDS011;18905;42.668;23.364;2023-06-22T08:41:04;18.10;;;11.80;;
28625;SDS011;18905;42.668;23.364;2023-06-22T08:43:29;20.58;;;11.70;;
28625;SDS011;18905;42.668;23.364;2023-06-22T08:45:55;25.30;;;11.45;;
28625;SDS011;18905;42.668;23.364;2023-06-22T08:48:20;22.58;;;10.55;;
28625;SDS011;18905;42.668;23.364;2023-06-22T08:50:45;16.83;;;10.20;;
28625;SDS011;18905;42.668;23.364;2023-06-22T08:53:11;21.23;;;10.40;;
28625;SDS011;18905;42.668;23.364;2023-06-22T08:55:36;16.38;;;10.05;;
28625;SDS011;18905;42.668;23.364;2023-06-22T08:58:01;15.73;;;11.00;;
28625;SDS011;18905;42.668;23.364;2023-06-22T09:00:28;20.70;;;10.32;;
28625;SDS011;18905;42.668;23.364;2023-06-22T09:02:57;17.30;;;10.15;;
28625;SDS011;18905;42.668;23.364;2023-06-22T09:05:24;16.63;;;10.27;;
28625;SDS011;18905;42.668;23.364;2023-06-22T09:07:51;17.13;;;10.45;;
28625;SDS011;18905;42.668;23.364;2023-06-22T09:10:16;13.52;;;9.52;;
28625;SDS011;18905;42.668;23.364;2023-06-22T09:12:42;14.52;;;10.57;;
28625;SDS011;18905;42.668;23.364;2023-06-22T09:15:07;17.50;;;10.00;;
28625;SDS011;18905;42.668;23.364;2023-06-22T09:17:33;10.70;;;8.82;;
28625;SDS011;18905;42.668;23.364;2023-06-22T09:19:59;13.23;;;9.38;;
28625;SDS011;18905;42.668;23.364;2023-06-22T09:22:25;12.60;;;8.45;;
28625;SDS011;18905;42.668;23.364;2023-06-22T09:24:54;12.30;;;8.95;;
28625;SDS011;18905;42.668;23.364;2023-06-22T09:27:20;13.23;;;9.90;;
28625;SDS011;18905;42.668;23.364;2023-06-22T09:29:45;13.77;;;10.13;;
28625;SDS011;18905;42.668;23.364;2023-06-22T09:32:11;18.50;;;10.80;;
28625;SDS011;18905;42.668;23.364;2023-06-22T09:34:36;12.23;;;10.10;;
28625;SDS011;18905;42.668;23.364;2023-06-22T09:37:02;12.68;;;8.98;;
28625;SDS011;18905;42.668;23.364;2023-06-22T09:39:27;14.23;;;10.45;;
28625;SDS011;18905;42.668;23.364;2023-06-22T09:41:52;21.52;;;10.75;;
28625;SDS011;18905;42.668;23.364;2023-06-22T09:44:18;14.05;;;10.80;;
28625;SDS011;18905;42.668;23.364;2023-06-22T09:46:43;20.00;;;11.18;;
28625;SDS011;18905;42.668;23.364;2023-06-22T09:49:09;20.65;;;11.65;;
28625;SDS011;18905;42.668;23.364;2023-06-22T09:51:34;20.40;;;12.13;;
28625;SDS011;18905;42.668;23.364;2023-06-22T09:53:59;16.45;;;10.80;;
28625;SDS011;18905;42.668;23.364;2023-06-22T09:56:25;17.92;;;10.68;;
28625;SDS011;18905;42.668;23.364;2023-06-22T09:58:53;11.93;;;8.68;;
28625;SDS011;18905;42.668;23.364;2023-06-22T10:01:18;14.10;;;8.75;;
28625;SDS011;18905;42.668;23.364;2023-06-22T10:03:45;13.73;;;9.15;;
28625;SDS011;18905;42.668;23.364;2023-06-22T10:06:11;13.40;;;8.98;;
28625;SDS011;18905;42.668;23.364;2023-06-22T10:08:36;16.25;;;9.98;;
28625;SDS011;18905;42.668;23.364;2023-06-22T10:11:02;12.80;;;9.55;;
28625;SDS011;18905;42.668;23.364;2023-06-22T10:13:28;17.83;;;9.55;;
28625;SDS011;18905;42.668;23.364;2023-06-22T10:15:54;12.63;;;9.60;;
28625;SDS011;18905;42.668;23.364;2023-06-22T10:18:19;14.02;;;10.07;;
28625;SDS011;18905;42.668;23.364;2023-06-22T10:20:46;10.98;;;9.13;;
28625;SDS011;18905;42.668;23.364;2023-06-22T10:23:13;13.48;;;9.63;;
28625;SDS011;18905;42.668;23.364;2023-06-22T10:25:38;13.50;;;9.45;;
28625;SDS011;18905;42.668;23.364;2023-06-22T10:28:04;17.45;;;10.27;;
28625;SDS011;18905;42.668;23.364;2023-06-22T10:30:29;14.10;;;9.07;;
28625;SDS011;18905;42.668;23.364;2023-06-22T10:32:54;12.57;;;9.10;;
28625;SDS011;18905;42.668;23.364;2023-06-22T10:35:20;10.38;;;8.63;;
28625;SDS011;18905;42.668;23.364;2023-06-22T10:37:46;8.38;;;7.50;;
28625;SDS011;18905;42.668;23.364;2023-06-22T10:40:12;10.18;;;8.10;;
28625;SDS011;18905;42.668;23.364;2023-06-22T10:42:39;11.95;;;8.63;;
28625;SDS011;18905;42.668;23.364;2023-06-22T10:45:05;12.25;;;8.25;;
28625;SDS011;18905;42.668;23.364;2023-06-22T10:47:31;10.60;;;8.27;;
28625;SDS011;18905;42.668;23.364;2023-06-22T10:49:56;9.95;;;7.95;;
28625;SDS011;18905;42.668;23.364;2023-06-22T10:52:22;14.57;;;8.23;;
28625;SDS011;18905;42.668;23.364;2023-06-22T10:54:47;8.15;;;7.18;;
28625;SDS011;18905;42.668;23.364;2023-06-22T10:57:13;8.88;;;7.43;;
28625;SDS011;18905;42.668;23.364;2023-06-22T10:59:39;8.88;;;7.45;;
28625;SDS011;18905;42.668;23.364;2023-06-22T11:02:04;8.88;;;7.97;;
28625;SDS011;18905;42.668;23.364;2023-06-22T11:04:30;12.30;;;7.70;;
28625;SDS011;18905;42.668;23.364;2023-06-22T11:06:55;12.27;;;8.35;;
28625;SDS011;18905;42.668;23.364;2023-06-22T11:09:21;11.32;;;8.18;;
28625;SDS011;18905;42.668;23.364;2023-06-22T11:11:47;12.52;;;7.85;;
28625;SDS011;18905;42.668;23.364;2023-06-22T11:14:12;8.70;;;7.78;;
28625;SDS011;18905;42.668;23.364;2023-06-22T11:16:38;8.93;;;8.05;;
28625;SDS011;18905;42.668;23.364;2023-06-22T11:19:04;13.90;;;7.85;;
28625;SDS011;18905;42.668;23.364;2023-06-22T11:21:30;12.43;;;8.25;;
28625;SDS011;18905;42.668;23.364;2023-06-22T11:23:56;12.52;;;7.25;;
28625;SDS011;18905;42.668;23.364;2023-06-22T11:26:22;9.95;;;7.20;;
28625;SDS011;18905;42.668;23.364;2023-06-22T11:28:47;11.27;;;7.35;;
28625;SDS011;18905;42.668;23.364;2023-06-22T11:31:14;8.70;;;7.78;;
28625;SDS011;18905;42.668;23.364;2023-06-22T11:33:39;11.30;;;7.53;;
28625;SDS011;18905;42.668;23.364;2023-06-22T11:36:05;11.18;;;7.28;;
28625;SDS011;18905;42.668;23.364;2023-06-22T11:38:30;10.45;;;8.18;;
28625;SDS011;18905;42.668;23.364;2023-06-22T11:40:57;9.80;;;7.85;;
28625;SDS011;18905;42.668;23.364;2023-06-22T11:43:25;8.63;;;7.53;;
28625;SDS011;18905;42.668;23.364;2023-06-22T11:45:50;11.63;;;7.63;;
28625;SDS011;18905;42.668;23.364;2023-06-22T11:48:16;10.13;;;7.60;;
28625;SDS011;18905;42.668;23.364;2023-06-22T11:50:42;8.55;;;7.47;;
28625;SDS011;18905;42.668;23.364;2023-06-22T11:53:07;11.57;;;7.80;;
28625;SDS011;18905;42.668;23.364;2023-06-22T11:55:32;10.88;;;7.80;;
28625;SDS011;18905;42.668;23.364;2023-06-22T11:57:58;11.68;;;7.47;;
28625;SDS011;18905;42.668;23.364;2023-06-22T12:00:25;8.02;;;7.22;;
28625;SDS011;18905;42.668;23.364;2023-06-22T12:02:51;8.23;;;7.13;;
28625;SDS011;18905;42.668;23.364;2023-06-22T12:05:19;12.13;;;8.60;;
28625;SDS011;18905;42.668;23.364;2023-06-22T12:07:53;10.52;;;7.70;;
28625;SDS011;18905;42.668;23.364;2023-06-22T12:10:19;9.27;;;7.28;;
28625;SDS011;18905;42.668;23.364;2023-06-22T12:12:44;12.18;;;8.15;;
28625;SDS011;18905;42.668;23.364;2023-06-22T12:15:10;11.88;;;7.78;;
28625;SDS011;18905;42.668;23.364;2023-06-22T12:17:35;10.82;;;7.65;;
28625;SDS011;18905;42.668;23.364;2023-06-22T12:20:01;14.75;;;7.72;;
28625;SDS011;18905;42.668;23.364;2023-06-22T12:22:30;13.48;;;8.20;;
28625;SDS011;18905;42.668;23.364;2023-06-22T12:24:57;10.32;;;8.73;;
28625;SDS011;18905;42.668;23.364;2023-06-22T12:27:23;17.13;;;8.45;;
28625;SDS011;18905;42.668;23.364;2023-06-22T12:29:48;13.80;;;8.40;;
28625;SDS011;18905;42.668;23.364;2023-06-22T12:32:13;15.70;;;8.55;;
28625;SDS011;18905;42.668;23.364;2023-06-22T12:34:41;14.30;;;8.85;;
28625;SDS011;18905;42.668;23.364;2023-06-22T12:37:10;10.85;;;8.35;;
28625;SDS011;18905;42.668;23.364;2023-06-22T12:39:35;13.35;;;8.98;;
28625;SDS011;18905;42.668;23.364;2023-06-22T12:42:01;15.02;;;8.38;;
28625;SDS011;18905;42.668;23.364;2023-06-22T12:44:27;11.05;;;8.38;;
28625;SDS011;18905;42.668;23.364;2023-06-22T12:46:53;11.68;;;8.98;;
28625;SDS011;18905;42.668;23.364;2023-06-22T12:49:18;11.88;;;8.43;;
28625;SDS011;18905;42.668;23.364;2023-06-22T12:51:44;15.60;;;9.00;;
28625;SDS011;18905;42.668;23.364;2023-06-22T12:54:11;11.90;;;8.57;;
28625;SDS011;18905;42.668;23.364;2023-06-22T12:56:37;11.32;;;8.60;;
28625;SDS011;18905;42.668;23.364;2023-06-22T12:59:06;12.13;;;9.18;;
28625;SDS011;18905;42.668;23.364;2023-06-22T13:01:31;15.43;;;10.52;;
28625;SDS011;18905;42.668;23.364;2023-06-22T13:03:57;13.93;;;9.23;;
28625;SDS011;18905;42.668;23.364;2023-06-22T13:06:23;14.77;;;9.27;;
28625;SDS011;18905;42.668;23.364;2023-06-22T13:08:49;16.80;;;9.23;;
28625;SDS011;18905;42.668;23.364;2023-06-22T13:11:14;14.65;;;9.55;;
28625;SDS011;18905;42.668;23.364;2023-06-22T13:13:39;12.73;;;9.32;;
28625;SDS011;18905;42.668;23.364;2023-06-22T13:16:05;12.05;;;9.63;;
28625;SDS011;18905;42.668;23.364;2023-06-22T13:18:30;17.85;;;9.73;;
28625;SDS011;18905;42.668;23.364;2023-06-22T13:20:56;12.43;;;8.98;;
28625;SDS011;18905;42.668;23.364;2023-06-22T13:23:23;15.57;;;10.30;;
28625;SDS011;18905;42.668;23.364;2023-06-22T13:25:48;16.80;;;10.88;;
28625;SDS011;18905;42.668;23.364;2023-06-22T13:28:14;14.85;;;10.25;;
28625;SDS011;18905;42.668;23.364;2023-06-22T13:30:41;13.10;;;9.68;;
28625;SDS011;18905;42.668;23.364;2023-06-22T13:33:06;15.93;;;10.35;;
28625;SDS011;18905;42.668;23.364;2023-06-22T13:35:32;13.20;;;10.10;;
28625;SDS011;18905;42.668;23.364;2023-06-22T13:37:57;16.05;;;10.68;;
28625;SDS011;18905;42.668;23.364;2023-06-22T13:40:22;15.23;;;10.48;;
28625;SDS011;18905;42.668;23.364;2023-06-22T13:42:48;16.65;;;10.90;;
28625;SDS011;18905;42.668;23.364;2023-06-22T13:45:13;14.02;;;10.75;;
28625;SDS011;18905;42.668;23.364;2023-06-22T13:47:39;18.08;;;11.18;;
28625;SDS011;18905;42.668;23.364;2023-06-22T13:50:05;19.00;;;11.25;;
28625;SDS011;18905;42.668;23.364;2023-06-22T13:52:30;18.10;;;10.70;;
28625;SDS011;18905;42.668;23.364;2023-06-22T13:54:56;18.85;;;10.07;;
28625;SDS011;18905;42.668;23.364;2023-06-22T13:57:21;15.65;;;10.50;;
28625;SDS011;18905;42.668;23.364;2023-06-22T13:59:46;16.80;;;10.45;;
28625;SDS011;18905;42.668;23.364;2023-06-22T14:02:12;13.40;;;9.98;;
28625;SDS011;18905;42.668;23.364;2023-06-22T14:04:37;12.77;;;9.90;;
28625;SDS011;18905;42.668;23.364;2023-06-22T14:07:03;13.32;;;9.85;;
28625;SDS011;18905;42.668;23.364;2023-06-22T14:09:28;13.13;;;9.80;;
28625;SDS011;18905;42.668;23.364;2023-06-22T14:11:54;19.02;;;9.98;;
28625;SDS011;18905;42.668;23.364;2023-06-22T14:14:20;20.33;;;10.27;;
28625;SDS011;18905;42.668;23.364;2023-06-22T14:16:46;18.85;;;10.20;;